CheckWX is a tool to help pilots better visualize weather data.  It is not intended as a substitute for an official pre-flight weather briefing.

13:48:56 UTC

KVPS METAR
Eglin AFB / Destin-Ft Walton Beach Airport
Valparaiso/Destin-Ft Walton Beach, Florida, USA
Current

53 mins ago

KVPS 251256Z AUTO 08007KT 10SM FEW180 27/24 A2997 RMK AO2 SLP155 T02680238 $
Observed
Aug-25 @ 12:56 UTC
Wind
  • 080° at 7 KTS
Visibility
10 SM
Flight Rules
VFR
Cloud Levels
  • Few at 18,000' AGL
Temperature
27°C / 81°F
Dewpoint
24°C / 75°F
Heat Index
31°C / 87°F
Humidity
84%
Altimeter
29.97" Hg
Pressure
1014.92 hPa
Previous

2 hours ago

KVPS 251156Z AUTO 00000KT 10SM CLR 25/24 A2996 RMK AO2 SLP151 T02500238 10258 20244 53012 $
Observed
Aug-25 @ 11:56 UTC
Visibility
10 SM
Flight Rules
VFR
Cloud Levels
  • Clear skies
Temperature
25°C / 77°F
Dewpoint
24°C / 75°F
Humidity
94%
Altimeter
29.96" Hg
Pressure
1014.52 hPa
Previous

3 hours ago

KVPS 251056Z AUTO 00000KT 10SM FEW029 25/24 A2993 RMK AO2 SLP141 T02480237 $
Observed
Aug-25 @ 10:56 UTC
Visibility
10 SM
Flight Rules
VFR
Cloud Levels
  • Few at 2,900' AGL
Temperature
25°C / 77°F
Dewpoint
24°C / 75°F
Humidity
94%
Altimeter
29.93" Hg
Pressure
1013.52 hPa